Time;durP1;ratioP1;P1;durP2;ratioP2;P2;SDS_P1;SDS_P2;PMS_P1;PMS_P2;Temp;Humidity;BMP_temperature;BMP_pressure;BME280_temperature;BME280_humidity;BME280_pressure;Samples;Min_cycle;Max_cycle;Signal;HPM_P1;HPM_P2
2022/12/10 00:00:50;;;;;;;;;81.33;63.67;;;;;;;;5048241;28;45253;-74
2022/12/10 00:03:15;;;;;;;;;84.00;66.00;;;;;;;;5032495;28;45348;-74
2022/12/10 00:05:40;;;;;;;;;87.67;66.67;;;;;;;;5056821;28;45241;-73
2022/12/10 00:08:05;;;;;;;;;91.00;65.67;;;;;;;;5021660;28;46544;-74
2022/12/10 00:10:30;;;;;;;;;87.67;67.33;;;;;;;;5052899;28;45305;-74
2022/12/10 00:12:56;;;;;;;;;90.67;68.00;;;;;;;;5034931;28;45293;-74
2022/12/10 00:15:21;;;;;;;;;89.67;67.00;;;;;;;;5054620;28;45330;-74
2022/12/10 00:17:46;;;;;;;;;85.67;67.33;;;;;;;;5033248;28;45528;-74
2022/12/10 00:20:11;;;;;;;;;84.33;63.00;;;;;;;;5056889;28;45419;-74
2022/12/10 00:22:36;;;;;;;;;84.00;64.00;;;;;;;;5045517;28;45494;-74
2022/12/10 00:25:02;;;;;;;;;81.67;62.33;;;;;;;;5024464;28;45488;-75
2022/12/10 00:27:27;;;;;;;;;82.33;64.33;;;;;;;;5028946;28;46067;-74
2022/12/10 00:29:52;;;;;;;;;80.00;61.33;;;;;;;;5044593;28;45214;-74
2022/12/10 00:32:18;;;;;;;;;90.00;66.00;;;;;;;;5036465;28;45223;-74
2022/12/10 00:34:43;;;;;;;;;87.33;61.33;;;;;;;;5051216;28;45325;-74
2022/12/10 00:37:08;;;;;;;;;83.33;65.33;;;;;;;;5027123;28;45750;-74
2022/12/10 00:39:33;;;;;;;;;86.33;64.67;;;;;;;;5047050;28;45151;-74
2022/12/10 00:41:59;;;;;;;;;82.33;65.00;;;;;;;;5032560;28;45261;-74
2022/12/10 00:44:24;;;;;;;;;78.00;60.33;;;;;;;;5051558;28;45346;-74
2022/12/10 00:46:49;;;;;;;;;73.67;58.67;;;;;;;;5029337;28;46932;-74
2022/12/10 00:49:14;;;;;;;;;75.67;59.33;;;;;;;;5052984;28;45235;-74
2022/12/10 00:51:40;;;;;;;;;69.00;57.00;;;;;;;;5047517;28;45279;-74
2022/12/10 00:54:05;;;;;;;;;76.33;60.67;;;;;;;;5050728;28;45576;-74
2022/12/10 00:56:32;;;;;;;;;77.00;58.67;;;;;;;;5051991;28;45147;-74
2022/12/10 00:58:57;;;;;;;;;75.00;59.67;;;;;;;;5051539;28;45524;-74
2022/12/10 01:01:24;;;;;;;;;75.33;57.00;;;;;;;;5054306;28;45440;-74
2022/12/10 01:03:51;;;;;;;;;72.33;56.67;;;;;;;;5054325;28;45738;-74
2022/12/10 01:06:17;;;;;;;;;72.00;54.67;;;;;;;;5056986;28;45422;-73
2022/12/10 01:08:43;;;;;;;;;75.33;58.67;;;;;;;;5053830;28;45284;-74
2022/12/10 01:11:10;;;;;;;;;72.00;57.67;;;;;;;;5057612;28;45289;-73
2022/12/10 01:13:35;;;;;;;;;73.67;57.33;;;;;;;;5047674;28;45164;-73
2022/12/10 01:16:01;;;;;;;;;79.33;58.00;;;;;;;;5058692;28;45260;-74
2022/12/10 01:18:27;;;;;;;;;70.33;53.67;;;;;;;;5032614;28;45286;-73
2022/12/10 01:20:52;;;;;;;;;74.67;55.67;;;;;;;;5053787;28;45261;-74
2022/12/10 01:23:17;;;;;;;;;74.33;56.00;;;;;;;;5049556;28;45318;-74
2022/12/10 01:25:42;;;;;;;;;75.67;56.67;;;;;;;;5059345;28;45408;-73
2022/12/10 01:28:08;;;;;;;;;68.33;52.00;;;;;;;;5043106;28;45337;-73
2022/12/10 01:30:33;;;;;;;;;76.00;56.33;;;;;;;;5051387;28;45562;-74
2022/12/10 01:32:58;;;;;;;;;75.67;60.00;;;;;;;;5044240;28;45403;-74
2022/12/10 01:35:23;;;;;;;;;71.00;56.00;;;;;;;;5028450;28;46972;-74
2022/12/10 01:37:49;;;;;;;;;60.33;44.33;;;;;;;;5043219;28;45502;-73
2022/12/10 01:40:14;;;;;;;;;67.00;51.00;;;;;;;;5051764;28;45264;-73
2022/12/10 01:42:39;;;;;;;;;73.00;56.00;;;;;;;;5049811;28;45439;-74
2022/12/10 01:45:06;;;;;;;;;65.33;51.00;;;;;;;;5054697;28;45298;-74
2022/12/10 01:47:32;;;;;;;;;64.33;53.00;;;;;;;;5046518;28;45426;-73
2022/12/10 01:49:57;;;;;;;;;68.67;55.33;;;;;;;;5052959;28;44776;-73
2022/12/10 01:52:22;;;;;;;;;70.00;50.00;;;;;;;;5057361;28;45190;-74
2022/12/10 01:54:48;;;;;;;;;51.33;37.00;;;;;;;;5058172;28;46460;-73
2022/12/10 01:57:13;;;;;;;;;64.67;49.00;;;;;;;;5038940;28;45191;-73
2022/12/10 01:59:39;;;;;;;;;64.33;52.33;;;;;;;;5054931;28;45287;-73
2022/12/10 02:02:07;;;;;;;;;68.67;51.67;;;;;;;;5051232;28;45228;-73
2022/12/10 02:04:41;;;;;;;;;70.00;51.00;;;;;;;;5052476;28;45550;-73
2022/12/10 02:07:13;;;;;;;;;70.00;51.00;;;;;;;;5047312;28;45324;-73
2022/12/10 02:09:47;;;;;;;;;64.33;48.67;;;;;;;;5052038;28;45265;-73
2022/12/10 02:12:31;;;;;;;;;53.33;47.00;;;;;;;;5051124;28;45550;-73
2022/12/10 02:15:00;;;;;;;;;64.33;49.33;;;;;;;;5053342;28;45301;-73
2022/12/10 02:17:45;;;;;;;;;58.67;46.67;;;;;;;;5034703;28;45618;-73
2022/12/10 02:20:17;;;;;;;;;62.67;47.67;;;;;;;;5055638;28;45221;-73
2022/12/10 02:22:55;;;;;;;;;55.33;42.67;;;;;;;;5043226;28;45510;-74
2022/12/10 02:25:23;;;;;;;;;69.00;47.67;;;;;;;;5046363;28;45465;-74
2022/12/10 02:27:55;;;;;;;;;61.67;47.00;;;;;;;;5045518;28;45367;-74
2022/12/10 02:30:21;;;;;;;;;63.00;49.00;;;;;;;;5028013;28;45335;-74
2022/12/10 02:32:48;;;;;;;;;63.33;48.00;;;;;;;;5042486;28;45364;-74
2022/12/10 02:35:21;;;;;;;;;65.33;50.67;;;;;;;;5051981;28;45377;-74
2022/12/10 02:37:51;;;;;;;;;65.00;48.00;;;;;;;;5033441;28;45262;-74
2022/12/10 02:40:19;;;;;;;;;69.33;52.00;;;;;;;;5032104;28;45363;-74
2022/12/10 02:42:46;;;;;;;;;68.00;52.33;;;;;;;;5047776;28;45292;-74
2022/12/10 02:45:12;;;;;;;;;66.00;51.33;;;;;;;;5033436;28;46790;-74
2022/12/10 02:47:38;;;;;;;;;67.67;50.00;;;;;;;;5051001;28;45139;-74
2022/12/10 02:50:05;;;;;;;;;43.00;32.00;;;;;;;;5059672;28;45289;-74
2022/12/10 02:52:30;;;;;;;;;80.67;56.00;;;;;;;;5028134;28;46057;-74
2022/12/10 02:54:57;;;;;;;;;70.00;50.33;;;;;;;;5040667;28;47227;-74
2022/12/10 02:57:32;;;;;;;;;64.67;50.00;;;;;;;;5050045;28;45388;-74
2022/12/10 03:00:06;;;;;;;;;73.33;52.00;;;;;;;;5049815;28;45458;-74
2022/12/10 03:02:41;;;;;;;;;56.00;46.50;;;;;;;;5046395;28;44877;-74
2022/12/10 03:05:06;;;;;;;;;56.00;41.00;;;;;;;;5032751;28;47305;-74
2022/12/10 03:07:37;;;;;;;;;62.00;48.00;;;;;;;;5036371;28;45405;-73
2022/12/10 03:10:24;;;;;;;;;62.00;49.33;;;;;;;;5056321;28;45367;-74
2022/12/10 03:12:52;;;;;;;;;48.75;42.00;;;;;;;;5045703;28;45432;-74
2022/12/10 03:15:19;;;;;;;;;61.67;50.67;;;;;;;;5050337;28;45407;-74
2022/12/10 03:17:45;;;;;;;;;66.67;49.67;;;;;;;;5045070;28;45339;-74
2022/12/10 03:20:12;;;;;;;;;63.67;44.67;;;;;;;;5042164;28;45461;-74
2022/12/10 03:22:39;;;;;;;;;67.00;46.00;;;;;;;;5041425;28;47262;-74
2022/12/10 03:25:04;;;;;;;;;53.33;41.33;;;;;;;;5019043;28;48286;-74
2022/12/10 03:27:30;;;;;;;;;59.67;44.67;;;;;;;;5041284;28;45484;-74
2022/12/10 03:29:57;;;;;;;;;60.00;46.33;;;;;;;;5046319;28;45428;-74
2022/12/10 03:32:24;;;;;;;;;53.67;42.00;;;;;;;;5040040;28;46007;-74
2022/12/10 03:34:51;;;;;;;;;60.33;47.33;;;;;;;;5052169;28;45598;-74
2022/12/10 03:37:16;;;;;;;;;61.33;46.67;;;;;;;;5045347;28;45426;-74
2022/12/10 03:39:42;;;;;;;;;57.00;43.00;;;;;;;;5051693;28;45207;-74
2022/12/10 03:42:07;;;;;;;;;49.75;41.00;;;;;;;;5050055;28;45465;-74
2022/12/10 03:44:34;;;;;;;;;56.50;44.75;;;;;;;;5046739;28;46124;-74
2022/12/10 03:47:00;;;;;;;;;56.33;41.33;;;;;;;;5046669;28;45466;-74
2022/12/10 03:49:26;;;;;;;;;53.33;43.67;;;;;;;;5051558;28;45282;-74
2022/12/10 03:51:51;;;;;;;;;58.67;46.33;;;;;;;;5033244;28;45440;-74
2022/12/10 03:54:16;;;;;;;;;57.33;45.67;;;;;;;;5051479;28;45434;-74
2022/12/10 03:56:41;;;;;;;;;55.00;44.00;;;;;;;;5053796;28;45289;-74
2022/12/10 03:59:06;;;;;;;;;54.75;42.75;;;;;;;;5044653;28;45630;-74
2022/12/10 04:01:32;;;;;;;;;49.50;41.50;;;;;;;;5044488;28;45361;-74
2022/12/10 04:03:57;;;;;;;;;62.75;44.50;;;;;;;;5043621;28;46110;-74
2022/12/10 04:06:22;;;;;;;;;47.75;38.25;;;;;;;;5046287;28;45300;-74
2022/12/10 04:08:48;;;;;;;;;47.50;42.25;;;;;;;;5045674;28;45285;-74
2022/12/10 04:11:13;;;;;;;;;51.25;40.75;;;;;;;;5049907;28;45230;-74
2022/12/10 04:16:26;;;;;;;;;54.00;41.50;;;;;;;;5052511;28;45360;-74
2022/12/10 04:18:51;;;;;;;;;48.00;39.50;;;;;;;;5052355;28;45241;-74
2022/12/10 04:26:53;;;;;;;;;50.25;34.00;;;;;;;;5052790;28;45333;-74
2022/12/10 04:29:23;;;;;;;;;27.00;24.75;;;;;;;;5024876;28;45377;-74
2022/12/10 04:31:49;;;;;;;;;39.00;35.75;;;;;;;;5043007;28;46779;-74
2022/12/10 04:34:14;;;;;;;;;40.75;31.25;;;;;;;;5037891;28;46966;-74
2022/12/10 04:36:39;;;;;;;;;43.00;35.25;;;;;;;;5046007;28;45434;-74
2022/12/10 04:39:05;;;;;;;;;45.25;36.00;;;;;;;;5045960;28;45454;-74
2022/12/10 04:41:30;;;;;;;;;36.75;33.75;;;;;;;;5048252;28;45377;-74
2022/12/10 04:43:55;;;;;;;;;47.25;39.50;;;;;;;;5046771;28;45444;-74
2022/12/10 04:46:20;;;;;;;;;43.50;36.50;;;;;;;;5039479;28;45238;-74
2022/12/10 04:48:45;;;;;;;;;45.00;38.50;;;;;;;;5051876;28;45649;-74
2022/12/10 04:51:11;;;;;;;;;47.25;37.50;;;;;;;;5051952;28;45246;-74
2022/12/10 04:53:36;;;;;;;;;38.25;32.00;;;;;;;;5050386;28;45268;-74
2022/12/10 04:56:01;;;;;;;;;38.50;35.75;;;;;;;;5037213;28;45442;-74
2022/12/10 04:58:30;;;;;;;;;42.00;31.25;;;;;;;;5056121;28;45241;-74
2022/12/10 05:01:00;;;;;;;;;51.25;38.25;;;;;;;;5047412;28;45193;-74
2022/12/10 05:03:25;;;;;;;;;48.75;33.50;;;;;;;;5042419;28;46289;-74
2022/12/10 05:05:51;;;;;;;;;44.50;37.25;;;;;;;;5060533;28;44797;-74
2022/12/10 05:08:16;;;;;;;;;48.75;39.00;;;;;;;;5045513;28;45447;-74
2022/12/10 05:10:41;;;;;;;;;38.00;36.25;;;;;;;;5060549;28;45471;-74
2022/12/10 05:13:06;;;;;;;;;51.00;33.25;;;;;;;;5035977;28;47993;-74
2022/12/10 05:15:31;;;;;;;;;48.25;40.75;;;;;;;;5042273;28;45264;-74
2022/12/10 05:17:57;;;;;;;;;42.00;37.25;;;;;;;;5044574;28;45399;-73
2022/12/10 05:20:22;;;;;;;;;46.50;40.25;;;;;;;;5045617;28;45499;-74
2022/12/10 05:25:52;;;;;;;;;36.50;33.50;;;;;;;;5046251;28;44738;-74
2022/12/10 05:28:16;;;;;;;;;46.00;37.50;;;;;;;;5045584;28;45375;-74
2022/12/10 05:30:41;;;;;;;;;43.50;35.75;;;;;;;;5048781;28;45308;-74
2022/12/10 05:33:06;;;;;;;;;38.25;30.50;;;;;;;;5045713;28;45554;-74
2022/12/10 05:35:32;;;;;;;;;45.75;38.50;;;;;;;;5051317;28;45239;-74
2022/12/10 05:37:57;;;;;;;;;36.00;30.25;;;;;;;;5049456;28;45420;-73
2022/12/10 05:40:22;;;;;;;;;42.50;26.00;;;;;;;;5052842;28;45460;-74
2022/12/10 05:42:47;;;;;;;;;40.25;30.25;;;;;;;;5051270;28;45412;-74
2022/12/10 05:45:12;;;;;;;;;41.25;34.00;;;;;;;;5052826;28;45423;-74
2022/12/10 05:47:38;;;;;;;;;49.25;37.25;;;;;;;;5038425;28;45342;-74
2022/12/10 05:50:03;;;;;;;;;41.75;38.25;;;;;;;;5050107;28;45363;-74
2022/12/10 05:52:28;;;;;;;;;42.00;37.00;;;;;;;;5040861;28;47075;-74
2022/12/10 05:54:54;;;;;;;;;33.75;29.50;;;;;;;;5040920;28;46257;-74
2022/12/10 05:57:19;;;;;;;;;33.75;29.50;;;;;;;;5057227;28;45261;-74
2022/12/10 05:59:44;;;;;;;;;31.25;29.00;;;;;;;;5051078;28;44828;-74
2022/12/10 06:02:09;;;;;;;;;28.25;20.50;;;;;;;;5034273;28;45951;-74
2022/12/10 06:04:34;;;;;;;;;28.75;23.75;;;;;;;;5050863;28;45296;-73
2022/12/10 06:06:59;;;;;;;;;28.25;23.50;;;;;;;;5050718;28;45404;-74
2022/12/10 06:09:25;;;;;;;;;25.50;21.25;;;;;;;;5050925;28;45250;-74
2022/12/10 06:11:50;;;;;;;;;15.25;14.25;;;;;;;;5053597;28;45392;-74
2022/12/10 06:14:15;;;;;;;;;26.00;17.25;;;;;;;;5050600;28;45281;-74
2022/12/10 06:16:41;;;;;;;;;23.75;18.75;;;;;;;;5046995;28;45520;-74
2022/12/10 06:19:06;;;;;;;;;27.50;23.75;;;;;;;;5032581;28;45661;-74
2022/12/10 06:21:31;;;;;;;;;27.75;25.25;;;;;;;;5051803;28;45480;-74
2022/12/10 06:23:57;;;;;;;;;33.75;30.00;;;;;;;;5041271;28;45270;-74
2022/12/10 06:26:23;;;;;;;;;36.00;31.00;;;;;;;;5028499;28;45432;-74
2022/12/10 06:28:49;;;;;;;;;42.25;29.25;;;;;;;;5024357;28;46083;-74
2022/12/10 06:31:14;;;;;;;;;32.75;29.75;;;;;;;;5056825;28;45397;-74
2022/12/10 06:33:40;;;;;;;;;39.50;30.50;;;;;;;;5047638;28;46084;-74
2022/12/10 06:36:06;;;;;;;;;36.50;28.00;;;;;;;;5044106;28;45714;-74
2022/12/10 06:38:32;;;;;;;;;23.50;20.75;;;;;;;;5048115;28;45388;-75
2022/12/10 06:40:57;;;;;;;;;38.75;29.75;;;;;;;;5052294;28;45386;-74
2022/12/10 06:43:22;;;;;;;;;63.67;46.67;;;;;;;;5049808;28;45353;-74
2022/12/10 06:45:47;;;;;;;;;48.50;35.00;;;;;;;;5054837;28;45328;-75
2022/12/10 06:48:13;;;;;;;;;30.75;28.75;;;;;;;;5045829;28;45223;-74
2022/12/10 06:50:38;;;;;;;;;29.50;21.25;;;;;;;;5043247;28;45233;-74
2022/12/10 06:53:03;;;;;;;;;32.00;23.50;;;;;;;;5046687;28;45319;-75
2022/12/10 06:55:29;;;;;;;;;39.75;26.25;;;;;;;;5045509;28;45559;-75
2022/12/10 06:57:54;;;;;;;;;31.50;27.75;;;;;;;;5052890;28;45214;-75
2022/12/10 07:00:20;;;;;;;;;36.25;29.50;;;;;;;;5047421;28;46373;-74
2022/12/10 07:02:45;;;;;;;;;30.50;25.00;;;;;;;;5044311;28;45678;-74
2022/12/10 07:05:11;;;;;;;;;31.50;26.50;;;;;;;;5050730;28;45289;-74
2022/12/10 07:07:36;;;;;;;;;29.25;22.50;;;;;;;;5046216;28;45592;-74
2022/12/10 07:10:01;;;;;;;;;29.50;24.50;;;;;;;;5032872;28;47832;-74
2022/12/10 07:12:26;;;;;;;;;38.75;31.75;;;;;;;;5049537;28;45371;-74
2022/12/10 07:14:52;;;;;;;;;25.25;20.25;;;;;;;;5053035;28;45255;-75
2022/12/10 07:17:17;;;;;;;;;34.75;33.25;;;;;;;;5049366;28;45420;-75
2022/12/10 07:19:42;;;;;;;;;25.75;17.25;;;;;;;;5034432;28;45374;-75
2022/12/10 07:22:07;;;;;;;;;30.75;26.00;;;;;;;;5044281;28;45655;-74
2022/12/10 07:24:33;;;;;;;;;26.75;25.50;;;;;;;;5040162;28;45215;-74
2022/12/10 07:26:58;;;;;;;;;31.25;27.75;;;;;;;;5049579;28;45192;-74
2022/12/10 07:29:23;;;;;;;;;46.50;36.25;;;;;;;;5023182;28;47001;-75
2022/12/10 07:31:49;;;;;;;;;39.75;33.25;;;;;;;;5041298;28;45464;-75
2022/12/10 07:34:15;;;;;;;;;31.25;22.75;;;;;;;;5047251;28;45428;-75
2022/12/10 07:36:40;;;;;;;;;27.75;21.00;;;;;;;;5025882;28;45608;-75
2022/12/10 07:39:07;;;;;;;;;48.50;39.25;;;;;;;;5043138;28;45344;-75
2022/12/10 07:41:32;;;;;;;;;25.00;23.00;;;;;;;;5032982;28;45400;-75
2022/12/10 07:43:57;;;;;;;;;31.50;21.75;;;;;;;;5034550;28;45383;-74
2022/12/10 07:46:24;;;;;;;;;25.50;21.75;;;;;;;;5035329;28;45944;-74
2022/12/10 07:48:49;;;;;;;;;25.75;18.75;;;;;;;;5046539;28;45625;-75
2022/12/10 07:51:16;;;;;;;;;31.75;24.00;;;;;;;;5056717;28;45289;-74
2022/12/10 07:53:41;;;;;;;;;23.00;19.00;;;;;;;;5041405;28;45317;-74
2022/12/10 07:56:06;;;;;;;;;31.25;25.25;;;;;;;;5041757;28;45690;-73
2022/12/10 07:58:32;;;;;;;;;23.50;21.00;;;;;;;;5047419;28;45257;-73
2022/12/10 08:00:57;;;;;;;;;24.75;18.25;;;;;;;;5045441;28;45245;-73
2022/12/10 08:03:23;;;;;;;;;31.25;25.25;;;;;;;;5042676;28;45383;-73
2022/12/10 08:05:49;;;;;;;;;28.25;24.50;;;;;;;;5057946;28;45550;-73
2022/12/10 08:08:14;;;;;;;;;28.75;24.00;;;;;;;;5048179;28;45560;-73
2022/12/10 08:10:39;;;;;;;;;37.50;31.00;;;;;;;;5032001;28;45352;-73
2022/12/10 08:13:05;;;;;;;;;31.75;27.25;;;;;;;;5036452;28;44804;-73
2022/12/10 08:15:30;;;;;;;;;27.00;22.75;;;;;;;;5037950;28;45907;-73
2022/12/10 08:17:56;;;;;;;;;26.50;21.75;;;;;;;;5028832;28;46293;-72
2022/12/10 08:20:21;;;;;;;;;25.75;20.25;;;;;;;;5050156;28;45329;-72
2022/12/10 08:22:46;;;;;;;;;27.00;22.75;;;;;;;;5031593;28;45365;-73
2022/12/10 08:25:12;;;;;;;;;64.67;50.00;;;;;;;;5043874;28;45450;-72
2022/12/10 08:27:37;;;;;;;;;36.75;26.00;;;;;;;;5038333;28;46129;-72
2022/12/10 08:30:02;;;;;;;;;25.75;21.75;;;;;;;;5046499;28;45315;-73
2022/12/10 08:32:27;;;;;;;;;42.00;35.00;;;;;;;;5043636;28;45313;-73
2022/12/10 08:34:53;;;;;;;;;28.25;24.50;;;;;;;;5047338;28;45283;-73
2022/12/10 08:37:18;;;;;;;;;34.50;26.75;;;;;;;;5046875;28;46193;-73
2022/12/10 08:39:43;;;;;;;;;26.25;18.00;;;;;;;;5038034;28;45342;-74
2022/12/10 08:42:08;;;;;;;;;23.25;18.50;;;;;;;;5050355;28;45369;-73
2022/12/10 08:44:33;;;;;;;;;25.50;19.00;;;;;;;;5049351;28;45516;-73
2022/12/10 08:46:59;;;;;;;;;37.50;23.50;;;;;;;;5030968;28;48119;-73
2022/12/10 08:49:24;;;;;;;;;23.75;18.75;;;;;;;;5046929;28;45215;-73
2022/12/10 08:51:49;;;;;;;;;58.25;45.50;;;;;;;;5043313;28;45211;-73
2022/12/10 08:54:14;;;;;;;;;35.75;31.50;;;;;;;;5033799;28;46566;-73
2022/12/10 08:56:39;;;;;;;;;56.75;38.75;;;;;;;;5048651;28;45322;-73
2022/12/10 08:59:05;;;;;;;;;32.25;24.50;;;;;;;;5046632;28;45206;-73
2022/12/10 09:01:30;;;;;;;;;32.00;27.25;;;;;;;;5054119;28;45432;-73
2022/12/10 09:03:55;;;;;;;;;35.25;27.25;;;;;;;;5048999;28;45325;-73
2022/12/10 09:06:23;;;;;;;;;26.25;22.50;;;;;;;;5058870;28;45295;-73
2022/12/10 09:08:48;;;;;;;;;35.75;28.50;;;;;;;;5045914;28;44783;-73
2022/12/10 09:11:16;;;;;;;;;34.00;23.50;;;;;;;;5046195;28;45548;-73
2022/12/10 09:13:42;;;;;;;;;33.50;27.50;;;;;;;;5041961;28;45459;-73
2022/12/10 09:16:08;;;;;;;;;34.50;28.25;;;;;;;;5039223;28;46104;-73
2022/12/10 09:18:33;;;;;;;;;31.00;26.75;;;;;;;;5041427;28;45456;-73
2022/12/10 09:20:58;;;;;;;;;32.50;30.75;;;;;;;;5033310;28;45310;-73
2022/12/10 09:23:24;;;;;;;;;38.75;33.00;;;;;;;;5044448;28;45354;-74
2022/12/10 09:25:49;;;;;;;;;35.00;26.75;;;;;;;;5044008;28;46121;-73
2022/12/10 09:28:14;;;;;;;;;32.25;29.00;;;;;;;;5041770;28;45435;-73
2022/12/10 09:30:39;;;;;;;;;43.75;28.50;;;;;;;;5027234;28;45246;-73
2022/12/10 09:33:05;;;;;;;;;29.25;26.75;;;;;;;;5043791;28;45341;-74
2022/12/10 09:35:30;;;;;;;;;33.25;26.00;;;;;;;;5042432;28;46949;-73
2022/12/10 09:37:55;;;;;;;;;37.50;26.50;;;;;;;;5042101;28;45313;-73
2022/12/10 09:40:24;;;;;;;;;41.50;28.00;;;;;;;;5052117;28;45297;-73
2022/12/10 09:42:55;;;;;;;;;36.75;32.75;;;;;;;;5034664;28;45623;-73
2022/12/10 09:45:42;;;;;;;;;25.50;20.25;;;;;;;;5029421;28;46448;-74
2022/12/10 09:48:10;;;;;;;;;40.50;34.75;;;;;;;;5035248;28;45562;-73
2022/12/10 09:50:48;;;;;;;;;51.50;39.50;;;;;;;;5055327;28;45285;-73
2022/12/10 09:53:15;;;;;;;;;92.67;74.00;;;;;;;;5033310;28;45488;-73
2022/12/10 09:55:43;;;;;;;;;53.25;39.00;;;;;;;;5035934;28;47092;-73
2022/12/10 09:58:13;;;;;;;;;29.25;26.25;;;;;;;;5036444;28;45369;-73
2022/12/10 10:00:39;;;;;;;;;65.00;51.33;;;;;;;;5038795;28;45380;-73
2022/12/10 10:03:06;;;;;;;;;44.50;30.25;;;;;;;;5033874;28;46027;-73
2022/12/10 10:05:34;;;;;;;;;39.75;31.75;;;;;;;;5050318;28;46630;-72
2022/12/10 10:08:02;;;;;;;;;35.75;29.00;;;;;;;;5038142;28;45356;-73
2022/12/10 10:10:29;;;;;;;;;32.00;28.00;;;;;;;;5037261;28;44703;-73
2022/12/10 10:12:57;;;;;;;;;30.25;26.25;;;;;;;;5046755;28;45222;-73
2022/12/10 10:15:33;;;;;;;;;36.00;23.75;;;;;;;;5038989;28;45934;-73
2022/12/10 10:18:03;;;;;;;;;52.25;42.25;;;;;;;;5046479;28;45430;-73
2022/12/10 10:20:29;;;;;;;;;34.00;25.50;;;;;;;;5029588;28;45323;-73
2022/12/10 10:22:56;;;;;;;;;43.25;35.25;;;;;;;;5045335;28;45625;-73
2022/12/10 10:25:21;;;;;;;;;31.50;25.50;;;;;;;;5054081;28;45310;-73
2022/12/10 10:27:46;;;;;;;;;47.75;36.25;;;;;;;;5036585;28;45342;-73
2022/12/10 10:30:20;;;;;;;;;33.00;27.50;;;;;;;;5045480;28;45270;-73
2022/12/10 10:32:50;;;;;;;;;41.25;29.50;;;;;;;;5043957;28;45278;-74
2022/12/10 10:35:21;;;;;;;;;37.50;31.50;;;;;;;;5051038;28;45404;-72
2022/12/10 10:37:46;;;;;;;;;34.00;26.25;;;;;;;;5046549;28;45226;-72
2022/12/10 10:40:41;;;;;;;;;41.25;30.50;;;;;;;;5055585;28;45281;-73
2022/12/10 10:43:14;;;;;;;;;43.50;34.00;;;;;;;;5039998;28;45171;-73
2022/12/10 10:45:40;;;;;;;;;48.00;39.25;;;;;;;;5033551;28;47835;-72
2022/12/10 10:48:08;;;;;;;;;42.25;37.75;;;;;;;;5033753;28;44870;-72
2022/12/10 10:50:46;;;;;;;;;48.25;33.25;;;;;;;;5054146;28;45252;-72
2022/12/10 10:53:20;;;;;;;;;32.00;25.50;;;;;;;;5033247;28;47090;-72
2022/12/10 10:55:45;;;;;;;;;31.00;25.75;;;;;;;;5035105;28;46524;-73
2022/12/10 10:58:17;;;;;;;;;34.00;28.50;;;;;;;;5029756;28;45359;-73
2022/12/10 11:00:52;;;;;;;;;34.00;27.50;;;;;;;;5043658;28;45455;-73
2022/12/10 11:03:17;;;;;;;;;30.50;27.25;;;;;;;;5029794;28;45805;-73
2022/12/10 11:05:46;;;;;;;;;36.50;26.25;;;;;;;;5047094;28;45348;-73
2022/12/10 11:08:18;;;;;;;;;35.00;27.75;;;;;;;;5043986;28;45371;-73
2022/12/10 11:10:50;;;;;;;;;27.50;24.75;;;;;;;;5047133;28;45274;-73
2022/12/10 11:13:25;;;;;;;;;33.00;27.25;;;;;;;;5051371;28;45543;-74
2022/12/10 11:15:55;;;;;;;;;32.25;20.50;;;;;;;;5039388;28;47401;-73
2022/12/10 11:18:25;;;;;;;;;28.75;23.25;;;;;;;;5048135;28;45323;-73
2022/12/10 11:21:01;;;;;;;;;36.25;27.25;;;;;;;;5049226;28;45371;-75
2022/12/10 11:23:27;;;;;;;;;32.00;29.75;;;;;;;;5042667;28;45472;-72
2022/12/10 11:25:53;;;;;;;;;31.75;25.50;;;;;;;;5047690;28;45241;-74
2022/12/10 11:28:27;;;;;;;;;37.25;28.25;;;;;;;;5048793;28;45384;-73
2022/12/10 11:31:02;;;;;;;;;30.50;26.50;;;;;;;;5040316;28;44800;-74
2022/12/10 11:33:35;;;;;;;;;34.25;29.00;;;;;;;;5051874;28;45317;-73
2022/12/10 11:36:19;;;;;;;;;37.75;27.00;;;;;;;;5056757;28;45359;-73
2022/12/10 11:38:51;;;;;;;;;39.00;32.00;;;;;;;;5047748;28;45240;-73
2022/12/10 11:41:19;;;;;;;;;28.25;25.00;;;;;;;;5049658;28;45439;-73
2022/12/10 11:43:50;;;;;;;;;29.75;26.25;;;;;;;;5045161;28;45234;-73
2022/12/10 11:46:15;;;;;;;;;34.00;28.00;;;;;;;;5052540;28;45380;-73
2022/12/10 11:48:59;;;;;;;;;34.50;31.00;;;;;;;;5045929;28;45391;-73
2022/12/10 11:51:44;;;;;;;;;31.25;26.75;;;;;;;;5036427;28;45293;-73
2022/12/10 11:54:27;;;;;;;;;38.75;30.25;;;;;;;;5051892;28;45413;-73
2022/12/10 11:56:59;;;;;;;;;27.75;22.25;;;;;;;;5055324;28;46247;-74
2022/12/10 11:59:25;;;;;;;;;32.75;27.50;;;;;;;;5048791;28;45913;-73
2022/12/10 12:01:51;;;;;;;;;26.25;23.00;;;;;;;;5047670;28;45530;-72
2022/12/10 12:04:22;;;;;;;;;32.00;27.00;;;;;;;;5046604;28;45155;-73
2022/12/10 12:06:59;;;;;;;;;36.00;29.75;;;;;;;;5053735;28;46144;-73
2022/12/10 12:09:42;;;;;;;;;41.25;29.75;;;;;;;;5041178;28;45233;-73
2022/12/10 12:12:40;;;;;;;;;26.75;23.50;;;;;;;;5052539;28;45559;-73
2022/12/10 12:15:16;;;;;;;;;28.00;26.00;;;;;;;;5014426;28;46474;-73
2022/12/10 12:17:45;;;;;;;;;29.50;26.75;;;;;;;;5040384;28;45375;-74
2022/12/10 12:20:12;;;;;;;;;19.25;17.75;;;;;;;;5043706;28;45401;-73
2022/12/10 12:22:41;;;;;;;;;28.00;21.25;;;;;;;;5042392;28;45373;-71
2022/12/10 12:25:27;;;;;;;;;24.75;22.50;;;;;;;;5040767;28;45756;-74
2022/12/10 12:27:56;;;;;;;;;32.50;26.00;;;;;;;;5045046;28;46806;-75
2022/12/10 12:30:22;;;;;;;;;32.00;27.50;;;;;;;;5050858;28;45456;-75
2022/12/10 12:32:53;;;;;;;;;29.75;24.50;;;;;;;;5051310;28;45463;-76
2022/12/10 12:35:37;;;;;;;;;28.25;20.50;;;;;;;;5054285;28;45370;-75
2022/12/10 12:38:11;;;;;;;;;33.25;25.00;;;;;;;;5041087;28;47285;-74
2022/12/10 12:40:43;;;;;;;;;31.00;27.00;;;;;;;;5058125;28;45295;-73
2022/12/10 12:43:16;;;;;;;;;34.25;30.75;;;;;;;;5050063;28;45371;-74
2022/12/10 12:45:44;;;;;;;;;33.75;27.75;;;;;;;;5056763;28;45293;-72
2022/12/10 12:48:13;;;;;;;;;39.25;32.25;;;;;;;;5056996;28;45702;-74
2022/12/10 12:50:46;;;;;;;;;37.25;33.50;;;;;;;;5042394;28;45483;-74
2022/12/10 12:53:16;;;;;;;;;29.75;25.50;;;;;;;;5045389;28;45383;-74
2022/12/10 12:55:53;;;;;;;;;23.75;21.25;;;;;;;;5046177;28;45448;-73
2022/12/10 12:58:25;;;;;;;;;32.75;25.25;;;;;;;;5035712;28;45569;-73
2022/12/10 13:00:53;;;;;;;;;24.25;20.00;;;;;;;;5060981;28;44729;-73
2022/12/10 13:03:24;;;;;;;;;25.50;18.50;;;;;;;;5046334;28;45448;-73
2022/12/10 13:05:50;;;;;;;;;26.25;25.00;;;;;;;;5055499;28;45495;-73
2022/12/10 13:08:18;;;;;;;;;28.75;21.00;;;;;;;;5056228;28;45355;-73
2022/12/10 13:10:50;;;;;;;;;26.50;24.50;;;;;;;;5060823;28;45287;-73
2022/12/10 13:13:22;;;;;;;;;37.00;22.25;;;;;;;;5050711;28;45395;-73
2022/12/10 13:15:47;;;;;;;;;28.25;22.50;;;;;;;;5022971;28;45659;-74
2022/12/10 13:18:17;;;;;;;;;26.50;23.75;;;;;;;;5044161;28;45301;-73
2022/12/10 13:21:01;;;;;;;;;10.00;10.00;;;;;;;;5042715;28;44863;-73
2022/12/10 13:23:30;;;;;;;;;28.50;22.75;;;;;;;;5057439;28;45261;-73
2022/12/10 13:25:57;;;;;;;;;26.00;24.00;;;;;;;;5059600;28;45206;-73
2022/12/10 13:28:27;;;;;;;;;27.50;21.50;;;;;;;;5052712;28;45238;-74
2022/12/10 13:31:15;;;;;;;;;27.50;23.75;;;;;;;;5060595;28;45606;-73
2022/12/10 13:33:44;;;;;;;;;33.50;28.75;;;;;;;;5046308;28;45461;-73
2022/12/10 13:36:09;;;;;;;;;36.50;27.25;;;;;;;;5058204;28;45713;-73
2022/12/10 13:38:38;;;;;;;;;24.25;24.00;;;;;;;;5035598;28;47504;-73
2022/12/10 13:46:56;;;;;;;;;26.75;26.75;;;;;;;;5049147;28;45427;-73
2022/12/10 13:49:23;;;;;;;;;32.00;25.25;;;;;;;;5057754;28;45359;-74
2022/12/10 13:51:54;;;;;;;;;20.75;19.00;;;;;;;;5037644;28;45548;-74
2022/12/10 13:54:38;;;;;;;;;31.75;29.75;;;;;;;;5057805;28;45343;-74
2022/12/10 13:57:06;;;;;;;;;29.25;28.00;;;;;;;;5055088;28;45515;-74
2022/12/10 13:59:40;;;;;;;;;29.00;24.75;;;;;;;;5050117;28;46183;-73
2022/12/10 14:02:24;;;;;;;;;24.00;18.50;;;;;;;;5039708;28;45487;-73
2022/12/10 14:05:08;;;;;;;;;24.25;22.75;;;;;;;;5056146;28;45174;-73
2022/12/10 14:07:34;;;;;;;;;25.00;21.50;;;;;;;;5055696;28;45293;-74
2022/12/10 14:10:00;;;;;;;;;21.00;18.75;;;;;;;;5058021;28;46612;-73
2022/12/10 14:12:27;;;;;;;;;25.00;23.25;;;;;;;;5044300;28;45288;-73
2022/12/10 14:14:56;;;;;;;;;22.50;18.50;;;;;;;;5044403;28;45175;-73
2022/12/10 14:17:24;;;;;;;;;28.25;23.50;;;;;;;;5028258;28;46198;-73
2022/12/10 14:19:50;;;;;;;;;24.50;22.25;;;;;;;;5042222;28;45373;-73
2022/12/10 14:22:18;;;;;;;;;20.00;19.25;;;;;;;;5044460;28;45362;-73
2022/12/10 14:24:44;;;;;;;;;34.75;27.50;;;;;;;;5044003;28;45251;-73
2022/12/10 14:27:14;;;;;;;;;30.75;25.75;;;;;;;;5037454;28;46092;-73
2022/12/10 14:29:43;;;;;;;;;29.50;26.00;;;;;;;;5047018;28;46083;-73
2022/12/10 14:32:14;;;;;;;;;36.00;28.00;;;;;;;;5027748;28;45672;-73
2022/12/10 14:34:39;;;;;;;;;30.75;27.75;;;;;;;;5054329;28;45269;-73
2022/12/10 14:37:04;;;;;;;;;36.25;25.75;;;;;;;;5042630;28;45250;-73